South Kingstown, Rhode Island
Current Conditions -  °F | °C
As of 3:53 PM on Tuesday 27 Jan 2015 (Local Time) from KWST Reporting Station
Light Snow Light Snow  
Wind Chill:   Ceiling: 4900
Heat Index: 21°   Visibility: 5mi
Dew Point: 13°   Wind: 18mph
Humidity: 71%   Direction: 330°NNW
Pressure: 29.53"   Gusts: 31mph
Location:  41.497°N, 71.599°W
Report Text: KWST 272053Z AUTO 33016G27KT 5SM -SN SCT040 BKN049 OVC080 M06/M11 A2953 RMK AO2 PK WND 33027/2047 SLP000 P0000 60000 T10611106 53006 $
Loading
Personal Weather Stations






























Interactive Weather Map New forecast layout! Learn more

10-Day Weather Forecast

Advertisements
Track Severe Weather on mobile